Time;durP1;ratioP1;P1;durP2;ratioP2;P2;SDS_P1;SDS_P2;PMS_P1;PMS_P2;Temp;Humidity;BMP_temperature;BMP_pressure;BME280_temperature;BME280_humidity;BME280_pressure;Samples;Min_cycle;Max_cycle;Signal;HPM_P1;HPM_P2
2021/06/16 00:00:36;;;;;;;;;;;;;;;27.56;46.19;100764.06;5129855;28;638;-67
2021/06/16 00:03:21;;;;;;;;;;;;;;;27.57;46.19;100759.53;5129735;28;1305;-67
2021/06/16 00:06:06;;;;;;;;;;;;;;;27.57;46.01;100756.88;5129454;27;1365;-67
2021/06/16 00:08:52;;;;;;;;;;;;;;;27.54;46.27;100755.31;5129697;28;1045;-66
2021/06/16 00:11:37;;;;;;;;;;;;;;;27.56;45.66;100758.69;5129380;27;1905;-66
2021/06/16 00:14:22;;;;;;;;;;;;;;;27.56;45.58;100753.34;5129883;28;1051;-67
2021/06/16 00:17:07;;;;;;;;;;;;;;;27.57;45.65;100749.66;5129329;27;1242;-67
2021/06/16 00:19:53;;;;;;;;;;;;;;;27.56;45.65;100747.16;5129372;28;843;-67
2021/06/16 00:22:38;;;;;;;;;;;;;;;27.59;45.52;100754.88;5129336;27;1285;-67
2021/06/16 00:25:24;;;;;;;;;;;;;;;27.59;45.17;100754.88;5129535;28;682;-67
2021/06/16 00:28:09;;;;;;;;;;;;;;;27.58;45.12;100759.38;5113780;28;1481;-67
2021/06/16 00:30:54;;;;;;;;;;;;;;;27.61;45.15;100759.09;5129518;27;1366;-67
2021/06/16 00:33:40;;;;;;;;;;;;;;;27.61;44.88;100756.41;5129582;28;1964;-67
2021/06/16 00:36:25;;;;;;;;;;;;;;;27.60;44.95;100754.72;5129199;27;1250;-67
2021/06/16 00:39:11;;;;;;;;;;;;;;;27.60;44.96;100748.56;5117064;27;1071;-68
2021/06/16 00:41:56;;;;;;;;;;;;;;;27.60;44.64;100744.03;5117510;27;1285;-67
2021/06/16 00:44:42;;;;;;;;;;;;;;;27.61;44.64;100742.19;5133262;27;699;-67
2021/06/16 00:47:27;;;;;;;;;;;;;;;27.61;44.69;100744.88;5132892;27;1598;-67
2021/06/16 00:50:13;;;;;;;;;;;;;;;27.60;44.55;100738.66;5133041;27;646;-67
2021/06/16 00:52:58;;;;;;;;;;;;;;;27.59;44.51;100731.66;5132818;27;1992;-67
2021/06/16 00:55:43;;;;;;;;;;;;;;;27.59;45.25;100726.31;5132700;27;706;-67
2021/06/16 00:58:29;;;;;;;;;;;;;;;27.61;45.08;100723.47;5133098;27;927;-67
2021/06/16 01:01:15;;;;;;;;;;;;;;;27.61;44.96;100718.97;5132531;27;1679;-67
2021/06/16 01:04:06;;;;;;;;;;;;;;;27.60;44.75;100717.25;5133126;27;1042;-66
2021/06/16 01:06:55;;;;;;;;;;;;;;;27.60;44.72;100727.97;5132904;27;1275;-66
2021/06/16 01:09:50;;;;;;;;;;;;;;;27.60;44.28;100719.94;5132522;27;603;-67
2021/06/16 01:12:41;;;;;;;;;;;;;;;27.58;44.25;100729.94;5132473;27;1913;-67
2021/06/16 01:15:29;;;;;;;;;;;;;;;27.57;44.30;100722.91;5132696;27;600;-66
2021/06/16 01:18:18;;;;;;;;;;;;;;;27.55;44.27;100708.84;5116799;27;1318;-66
2021/06/16 01:21:05;;;;;;;;;;;;;;;27.53;44.07;100716.19;5116777;27;1379;-66
2021/06/16 01:23:56;;;;;;;;;;;;;;;27.55;44.20;100722.22;5132619;27;1055;-67
2021/06/16 01:26:50;;;;;;;;;;;;;;;27.54;44.18;100715.16;5132241;27;1287;-66
2021/06/16 01:29:37;;;;;;;;;;;;;;;27.47;44.22;100711.41;5132691;27;694;-66
2021/06/16 01:32:22;;;;;;;;;;;;;;;27.50;44.10;100712.94;5116495;27;1918;-65
2021/06/16 01:35:08;;;;;;;;;;;;;;;27.50;43.86;100711.13;5132262;27;627;-67
2021/06/16 01:37:53;;;;;;;;;;;;;;;27.45;43.93;100702.66;5131935;27;1235;-66
2021/06/16 01:40:39;;;;;;;;;;;;;;;27.48;43.53;100697.03;5131909;27;664;-66
2021/06/16 01:43:25;;;;;;;;;;;;;;;27.44;43.76;100686.78;5116335;27;1111;-66
2021/06/16 01:46:11;;;;;;;;;;;;;;;27.45;43.71;100697.31;5132032;27;1281;-67
2021/06/16 01:48:57;;;;;;;;;;;;;;;27.44;43.63;100690.28;5131824;27;1163;-66
2021/06/16 01:51:42;;;;;;;;;;;;;;;27.42;43.15;100692.25;5131511;27;1905;-66
2021/06/16 01:54:29;;;;;;;;;;;;;;;27.46;43.33;100688.31;5131859;27;930;-67
2021/06/16 01:57:14;;;;;;;;;;;;;;;27.44;43.68;100684.94;5115890;27;1301;-67
2021/06/16 02:00:00;;;;;;;;;;;;;;;27.44;42.72;100674.25;5131754;27;639;-67
2021/06/16 02:02:46;;;;;;;;;;;;;;;27.44;42.54;100665.38;5131393;27;1461;-67
2021/06/16 02:05:31;;;;;;;;;;;;;;;27.45;42.46;100667.06;5131492;27;733;-67
2021/06/16 02:08:20;;;;;;;;;;;;;;;27.43;42.48;100666.34;5131549;27;1050;-66
2021/06/16 02:11:05;;;;;;;;;;;;;;;27.43;41.97;100669.88;5131193;27;1385;-66
2021/06/16 02:13:55;;;;;;;;;;;;;;;27.46;41.44;100661.56;5131582;27;1906;-66
2021/06/16 02:16:40;;;;;;;;;;;;;;;27.38;41.67;100657.91;5131049;27;1267;-66
2021/06/16 02:19:26;;;;;;;;;;;;;;;27.43;41.68;100651.16;5131258;27;1073;-67
2021/06/16 02:22:13;;;;;;;;;;;;;;;27.46;41.92;100652.69;5130999;27;1268;-67
2021/06/16 02:24:59;;;;;;;;;;;;;;;27.48;41.15;100653.41;5131138;27;706;-67
2021/06/16 02:27:44;;;;;;;;;;;;;;;27.49;42.21;100650.56;5130896;27;1286;-67
2021/06/16 02:30:29;;;;;;;;;;;;;;;27.48;41.67;100642.69;5130913;27;730;-67
2021/06/16 02:33:15;;;;;;;;;;;;;;;27.46;42.59;100648.19;5130986;27;1905;-67
2021/06/16 02:36:01;;;;;;;;;;;;;;;27.44;41.13;100641.28;5130815;27;1357;-67
2021/06/16 02:38:48;;;;;;;;;;;;;;;27.39;41.39;100643.53;5131151;27;978;-67
2021/06/16 02:41:34;;;;;;;;;;;;;;;27.42;41.28;100644.09;5130638;27;1195;-67
2021/06/16 02:44:20;;;;;;;;;;;;;;;27.48;41.30;100640.03;5130863;27;1061;-67
2021/06/16 02:47:07;;;;;;;;;;;;;;;27.48;41.64;100638.16;5130556;27;1289;-67
2021/06/16 02:49:57;;;;;;;;;;;;;;;27.47;40.49;100632.97;5114889;27;659;-67
2021/06/16 02:52:43;;;;;;;;;;;;;;;27.50;41.93;100628.19;5130378;27;1985;-67
2021/06/16 02:55:28;;;;;;;;;;;;;;;27.52;40.98;100620.84;5130872;27;1042;-67
2021/06/16 02:58:15;;;;;;;;;;;;;;;27.49;40.58;100613.13;5130566;27;1366;-67
2021/06/16 03:01:02;;;;;;;;;;;;;;;27.44;42.28;100619.91;5129729;27;1701;-67
2021/06/16 03:03:48;;;;;;;;;;;;;;;27.42;41.15;100617.34;5130288;27;716;-67
2021/06/16 03:06:34;;;;;;;;;;;;;;;27.41;40.60;100614.81;5130600;27;1258;-67
2021/06/16 03:09:21;;;;;;;;;;;;;;;27.46;40.99;100615.22;5130210;27;1170;-67
2021/06/16 03:12:08;;;;;;;;;;;;;;;27.48;40.56;100611.41;5130396;27;1909;-67
2021/06/16 03:14:53;;;;;;;;;;;;;;;27.42;41.10;100617.34;5130218;27;994;-67
2021/06/16 03:17:40;;;;;;;;;;;;;;;27.48;40.62;100613.28;5130198;27;1268;-67
2021/06/16 03:20:27;;;;;;;;;;;;;;;27.49;40.47;100613.13;5130375;27;1035;-67
2021/06/16 03:23:13;;;;;;;;;;;;;;;27.49;41.36;100613.13;5129921;27;1251;-67
2021/06/16 03:25:58;;;;;;;;;;;;;;;27.48;40.28;100614.09;5114529;27;1322;-67
2021/06/16 03:28:44;;;;;;;;;;;;;;;27.43;40.39;100624.41;5114555;27;659;-67
2021/06/16 03:31:30;;;;;;;;;;;;;;;27.47;40.45;100625.81;5129890;27;1222;-67
2021/06/16 03:34:16;;;;;;;;;;;;;;;27.42;40.36;100627.19;5114413;27;1898;-67
2021/06/16 03:37:02;;;;;;;;;;;;;;;27.35;40.29;100620.75;5129630;27;1294;-67
2021/06/16 03:39:51;;;;;;;;;;;;;;;27.37;41.55;100621.44;5129951;27;1084;-67
2021/06/16 03:42:38;;;;;;;;;;;;;;;27.41;40.95;100625.50;5114125;28;1292;-67
2021/06/16 03:45:23;;;;;;;;;;;;;;;27.41;41.19;100631.72;5130173;27;1129;-66
2021/06/16 03:48:10;;;;;;;;;;;;;;;27.46;41.38;100631.28;5129662;27;1281;-67
2021/06/16 03:50:55;;;;;;;;;;;;;;;27.45;41.49;100629.63;5129824;27;1274;-66
2021/06/16 03:53:42;;;;;;;;;;;;;;;27.43;41.66;100629.75;5129439;28;1949;-65
2021/06/16 03:56:27;;;;;;;;;;;;;;;27.39;42.11;100630.97;5129887;27;1243;-67
2021/06/16 03:59:15;;;;;;;;;;;;;;;27.39;42.29;100635.53;5129490;28;1577;-68
2021/06/16 04:02:01;;;;;;;;;;;;;;;27.45;42.53;100637.66;5129461;27;1222;-68
2021/06/16 04:04:46;;;;;;;;;;;;;;;27.46;43.01;100631.28;5129481;28;1028;-67
2021/06/16 04:07:31;;;;;;;;;;;;;;;27.47;42.70;100641.00;5129450;27;1273;-67
2021/06/16 04:10:18;;;;;;;;;;;;;;;27.48;42.88;100632.81;5129612;28;1087;-67
2021/06/16 04:13:03;;;;;;;;;;;;;;;27.44;42.94;100636.78;5130709;27;1898;-67
2021/06/16 04:15:49;;;;;;;;;;;;;;;27.45;42.52;100637.66;5133700;27;925;-67
2021/06/16 04:18:35;;;;;;;;;;;;;;;27.42;42.73;100633.41;5133724;27;631;-66
2021/06/16 04:21:21;;;;;;;;;;;;;;;27.47;42.53;100635.66;5133823;27;1237;-66
2021/06/16 04:24:07;;;;;;;;;;;;;;;27.46;42.59;100636.63;5118219;27;683;-66
2021/06/16 04:26:52;;;;;;;;;;;;;;;27.34;43.01;100635.09;5133287;27;1270;-66
2021/06/16 04:29:40;;;;;;;;;;;;;;;27.38;43.57;100632.00;5133331;27;1124;-68
2021/06/16 04:32:26;;;;;;;;;;;;;;;27.42;42.88;100636.06;5117368;27;2041;-67
2021/06/16 04:35:12;;;;;;;;;;;;;;;27.42;42.87;100641.44;5117553;27;951;-67
2021/06/16 04:37:57;;;;;;;;;;;;;;;27.33;42.83;100634.25;5133184;27;1298;-66
2021/06/16 04:40:43;;;;;;;;;;;;;;;27.33;42.76;100639.59;5117273;27;1064;-66
2021/06/16 04:43:28;;;;;;;;;;;;;;;27.34;43.14;100640.44;5133085;27;742;-66
2021/06/16 04:46:14;;;;;;;;;;;;;;;27.39;43.74;100639.00;5132783;27;1281;-66
2021/06/16 04:49:00;;;;;;;;;;;;;;;27.34;43.29;100643.13;5133001;27;710;-66
2021/06/16 04:51:45;;;;;;;;;;;;;;;27.32;43.21;100642.44;5132716;27;1309;-65
2021/06/16 04:54:30;;;;;;;;;;;;;;;27.35;43.12;100652.84;5132844;27;1960;-67
2021/06/16 04:57:16;;;;;;;;;;;;;;;27.37;43.21;100656.19;5132808;27;1315;-66
2021/06/16 05:00:01;;;;;;;;;;;;;;;27.34;43.44;100653.81;5117166;27;1101;-66
2021/06/16 05:02:47;;;;;;;;;;;;;;;27.33;44.38;100652.16;5131322;27;1430;-64
2021/06/16 05:05:33;;;;;;;;;;;;;;;27.31;43.37;100657.63;5116410;27;1146;-67
2021/06/16 05:08:18;;;;;;;;;;;;;;;27.33;43.27;100660.16;5116104;27;651;-66
2021/06/16 05:11:03;;;;;;;;;;;;;;;27.31;43.52;100652.28;5131765;27;1286;-66
2021/06/16 05:13:49;;;;;;;;;;;;;;;27.31;43.65;100652.28;5131591;27;1906;-65
2021/06/16 05:16:34;;;;;;;;;;;;;;;27.33;43.14;100655.63;5131979;27;1361;-67
2021/06/16 05:19:22;;;;;;;;;;;;;;;27.32;42.93;100653.97;5131527;27;1035;-67
2021/06/16 05:22:13;;;;;;;;;;;;;;;27.34;42.93;100654.66;5131351;27;1295;-67
2021/06/16 05:25:00;;;;;;;;;;;;;;;27.35;43.03;100661.72;5115466;27;1388;-67
2021/06/16 05:27:45;;;;;;;;;;;;;;;27.34;42.91;100652.00;5131912;27;1294;-66
2021/06/16 05:30:30;;;;;;;;;;;;;;;27.34;42.88;100652.00;5131611;27;1093;-64
2021/06/16 05:33:16;;;;;;;;;;;;;;;27.35;42.91;100648.34;5130978;27;1965;-67
2021/06/16 05:36:10;;;;;;;;;;;;;;;27.34;43.17;100657.34;5116772;27;1345;-66
2021/06/16 05:38:58;;;;;;;;;;;;;;;27.34;44.03;100662.69;5116297;27;1538;-65
2021/06/16 05:41:43;;;;;;;;;;;;;;;27.33;43.88;100658.31;5122795;27;1454;-65
2021/06/16 05:44:29;;;;;;;;;;;;;;;27.31;43.87;100662.97;5130628;27;1315;-67
2021/06/16 05:47:22;;;;;;;;;;;;;;;27.37;44.09;100665.06;5116186;27;1322;-69
2021/06/16 05:50:07;;;;;;;;;;;;;;;27.31;44.04;100664.81;5116139;27;1080;-68
2021/06/16 05:52:53;;;;;;;;;;;;;;;27.33;44.09;100663.66;5116113;27;1980;-68
2021/06/16 05:55:38;;;;;;;;;;;;;;;27.33;43.81;100668.19;5132254;27;1049;-65
2021/06/16 05:58:24;;;;;;;;;;;;;;;27.30;43.89;100658.59;5129658;27;1398;-63
2021/06/16 06:01:09;;;;;;;;;;;;;;;27.34;43.51;100662.69;5115746;27;1306;-67
2021/06/16 06:03:54;;;;;;;;;;;;;;;27.38;43.10;100665.91;5131263;27;701;-66
2021/06/16 06:06:39;;;;;;;;;;;;;;;27.38;43.19;100665.91;5131371;27;1241;-66
2021/06/16 06:09:25;;;;;;;;;;;;;;;27.33;42.82;100671.69;5131784;27;1162;-67
2021/06/16 06:12:10;;;;;;;;;;;;;;;27.37;43.27;100672.25;5131051;27;1283;-69
2021/06/16 06:14:55;;;;;;;;;;;;;;;27.38;42.41;100676.63;5130951;27;1898;-70
2021/06/16 06:17:41;;;;;;;;;;;;;;;27.37;43.93;100666.91;5115735;27;1260;-70
2021/06/16 06:20:27;;;;;;;;;;;;;;;27.32;42.54;100655.81;5131328;27;1135;-69
2021/06/16 06:23:12;;;;;;;;;;;;;;;27.37;42.82;100665.06;5130490;27;1293;-67
2021/06/16 06:25:57;;;;;;;;;;;;;;;27.40;42.62;100662.09;5131452;27;1250;-68
2021/06/16 06:28:43;;;;;;;;;;;;;;;27.38;43.27;100666.78;5130241;27;1517;-66
2021/06/16 06:31:29;;;;;;;;;;;;;;;27.37;42.97;100667.75;5128154;27;1251;-68
2021/06/16 06:34:14;;;;;;;;;;;;;;;27.44;43.24;100673.41;5130652;27;1906;-67
2021/06/16 06:36:59;;;;;;;;;;;;;;;27.46;43.68;100666.06;5129817;27;1303;-67
2021/06/16 06:39:46;;;;;;;;;;;;;;;27.48;43.40;100670.28;5130457;27;1063;-64
2021/06/16 06:42:32;;;;;;;;;;;;;;;27.49;43.60;100668.44;5130520;27;1344;-65
2021/06/16 06:45:18;;;;;;;;;;;;;;;27.49;43.57;100669.28;5130013;27;1040;-68
2021/06/16 06:48:05;;;;;;;;;;;;;;;27.51;43.74;100661.94;5129667;27;1377;-66
2021/06/16 06:50:50;;;;;;;;;;;;;;;27.52;43.33;100663.66;5129879;27;1533;-65
2021/06/16 06:53:36;;;;;;;;;;;;;;;27.60;43.80;100671.78;5126381;27;1957;-66
2021/06/16 06:56:22;;;;;;;;;;;;;;;27.58;43.36;100671.09;5126665;27;1335;-63
2021/06/16 06:59:07;;;;;;;;;;;;;;;27.53;43.52;100673.38;5114933;27;758;-67
2021/06/16 07:01:52;;;;;;;;;;;;;;;27.51;43.53;100680.69;5129979;27;1332;-68
2021/06/16 07:04:38;;;;;;;;;;;;;;;27.51;43.47;100675.31;5114742;27;922;-64
2021/06/16 07:07:23;;;;;;;;;;;;;;;27.55;43.86;100686.59;5130326;27;1251;-63
2021/06/16 07:10:09;;;;;;;;;;;;;;;27.54;43.83;100685.75;5130403;27;966;-65
2021/06/16 07:12:56;;;;;;;;;;;;;;;27.58;43.73;100678.28;5129281;27;1967;-65
2021/06/16 07:15:41;;;;;;;;;;;;;;;27.57;43.94;100679.28;5114730;27;1137;-67
2021/06/16 07:18:26;;;;;;;;;;;;;;;27.58;43.97;100684.47;5130156;27;663;-67
2021/06/16 07:21:12;;;;;;;;;;;;;;;27.60;43.87;100689.69;5130381;27;1243;-67
2021/06/16 07:23:58;;;;;;;;;;;;;;;27.58;43.87;100683.63;5129938;27;667;-64
2021/06/16 07:26:43;;;;;;;;;;;;;;;27.57;44.14;100696.16;5114410;27;1329;-65
2021/06/16 07:29:28;;;;;;;;;;;;;;;27.59;43.78;100690.66;5114036;27;945;-64
2021/06/16 07:32:16;;;;;;;;;;;;;;;27.62;44.02;100677.84;5128816;27;1450;-65
2021/06/16 07:35:03;;;;;;;;;;;;;;;27.58;44.11;100681.78;5108892;28;1906;-67
2021/06/16 07:37:48;;;;;;;;;;;;;;;27.59;44.26;100683.50;5101174;27;1365;-67
2021/06/16 07:40:34;;;;;;;;;;;;;;;27.57;44.54;100679.28;5130022;27;1082;-66
2021/06/16 07:43:19;;;;;;;;;;;;;;;27.61;44.29;100681.50;5129534;27;638;-66
2021/06/16 07:46:04;;;;;;;;;;;;;;;27.64;44.19;100675.84;5129687;27;1285;-67
2021/06/16 07:48:50;;;;;;;;;;;;;;;27.65;44.95;100682.06;5113717;27;727;-66
2021/06/16 07:51:35;;;;;;;;;;;;;;;27.72;44.70;100679.63;5129775;27;1283;-63
2021/06/16 07:54:21;;;;;;;;;;;;;;;27.68;44.69;100682.63;5129409;28;1914;-64
2021/06/16 07:57:06;;;;;;;;;;;;;;;27.70;44.41;100679.78;5129270;28;1387;-65
2021/06/16 07:59:51;;;;;;;;;;;;;;;27.68;44.03;100673.72;5129295;28;933;-65
2021/06/16 08:02:38;;;;;;;;;;;;;;;27.67;44.25;100670.22;5129315;28;1235;-65
2021/06/16 08:05:24;;;;;;;;;;;;;;;27.71;44.04;100673.44;5129837;28;1067;-65
2021/06/16 08:08:09;;;;;;;;;;;;;;;27.73;44.12;100668.78;5129129;28;1285;-64
2021/06/16 08:10:55;;;;;;;;;;;;;;;27.77;43.83;100674.69;5129513;27;1259;-64
2021/06/16 08:13:40;;;;;;;;;;;;;;;27.77;43.81;100672.00;5129233;28;1968;-65
2021/06/16 08:16:26;;;;;;;;;;;;;;;27.76;43.78;100664.94;5124999;28;1755;-66
2021/06/16 08:19:11;;;;;;;;;;;;;;;27.77;43.96;100666.66;5111733;28;1085;-67
2021/06/16 08:21:57;;;;;;;;;;;;;;;27.77;43.91;100658.63;5094136;28;1411;-66
2021/06/16 08:24:43;;;;;;;;;;;;;;;27.78;44.16;100655.81;5112202;28;1243;-66
2021/06/16 08:27:28;;;;;;;;;;;;;;;27.81;44.18;100660.88;5103430;28;1424;-65
2021/06/16 08:30:14;;;;;;;;;;;;;;;27.84;44.44;100662.41;5112015;28;1304;-65
2021/06/16 08:32:59;;;;;;;;;;;;;;;27.83;44.66;100652.69;5126326;28;1381;-65
2021/06/16 08:35:45;;;;;;;;;;;;;;;27.82;44.65;100654.50;5127083;28;1123;-65
2021/06/16 08:38:30;;;;;;;;;;;;;;;27.85;45.43;100656.03;5127939;28;634;-66
2021/06/16 08:41:16;;;;;;;;;;;;;;;27.86;45.16;100661.25;5107014;28;1294;-65
2021/06/16 08:44:01;;;;;;;;;;;;;;;27.87;45.07;100660.28;5107168;28;654;-67
2021/06/16 08:46:48;;;;;;;;;;;;;;;27.88;45.51;100663.78;5106792;28;1253;-66
2021/06/16 08:49:34;;;;;;;;;;;;;;;27.86;45.59;100665.75;5107217;28;1054;-64
2021/06/16 08:52:19;;;;;;;;;;;;;;;27.89;46.03;100668.16;5107231;28;1323;-66
2021/06/16 08:55:07;;;;;;;;;;;;;;;27.86;45.83;100663.94;5091505;28;1905;-65
2021/06/16 08:57:52;;;;;;;;;;;;;;;27.87;46.26;100662.09;5106427;28;1358;-65
2021/06/16 09:00:38;;;;;;;;;;;;;;;27.90;46.13;100664.50;5110925;28;958;-65
2021/06/16 09:03:24;;;;;;;;;;;;;;;27.89;46.59;100660.13;5090709;28;636;-64
2021/06/16 09:06:11;;;;;;;;;;;;;;;27.94;46.16;100656.00;5090146;28;1380;-65
2021/06/16 09:08:56;;;;;;;;;;;;;;;27.95;46.63;100656.84;5091644;28;1595;-66
2021/06/16 09:11:43;;;;;;;;;;;;;;;27.93;46.17;100650.81;5107304;28;1284;-67
2021/06/16 09:14:28;;;;;;;;;;;;;;;27.92;46.17;100651.78;5110654;28;1902;-66
2021/06/16 09:17:18;;;;;;;;;;;;;;;27.96;45.24;100642.47;5102819;28;1363;-65
2021/06/16 09:20:04;;;;;;;;;;;;;;;27.96;45.40;100642.47;5102848;28;1028;-64
2021/06/16 09:22:49;;;;;;;;;;;;;;;27.95;45.04;100651.50;5110487;28;1334;-65
2021/06/16 09:25:34;;;;;;;;;;;;;;;27.92;45.06;100652.63;5110776;28;1235;-70
2021/06/16 09:28:32;;;;;;;;;;;;;;;27.93;44.47;100658.84;5090152;28;643;-68
2021/06/16 09:31:18;;;;;;;;;;;;;;;27.95;44.67;100656.84;5087804;28;1310;-63
2021/06/16 09:34:09;;;;;;;;;;;;;;;27.94;43.57;100660.50;5088338;28;1913;-65
2021/06/16 09:36:55;;;;;;;;;;;;;;;27.94;43.43;100663.19;5088238;28;1412;-65
2021/06/16 09:39:41;;;;;;;;;;;;;;;27.95;43.46;100662.19;5089330;28;1106;-65
2021/06/16 09:42:27;;;;;;;;;;;;;;;27.94;42.69;100660.50;5089617;28;1415;-65
2021/06/16 09:45:16;;;;;;;;;;;;;;;27.94;42.86;100665.84;5089669;28;1139;-65
2021/06/16 09:48:18;;;;;;;;;;;;;;;27.93;42.93;100667.72;5089257;28;1333;-65
2021/06/16 09:51:22;;;;;;;;;;;;;;;27.92;42.82;100666.03;5089195;28;1313;-65
2021/06/16 09:54:21;;;;;;;;;;;;;;;27.94;43.34;100673.88;5089575;28;1906;-65
2021/06/16 09:57:07;;;;;;;;;;;;;;;27.96;43.47;100663.91;5106131;28;1564;-65
2021/06/16 09:59:57;;;;;;;;;;;;;;;27.96;43.51;100664.75;5095151;28;1033;-66
2021/06/16 10:02:42;;;;;;;;;;;;;;;27.98;43.76;100668.09;5122553;27;1507;-68
2021/06/16 10:05:27;;;;;;;;;;;;;;;27.99;43.92;100666.28;5129679;27;1354;-72
2021/06/16 10:08:23;;;;;;;;;;;;;;;27.99;43.77;100669.78;5106221;27;1567;-73
2021/06/16 10:11:10;;;;;;;;;;;;;;;28.00;43.61;100670.63;5113822;27;1330;-71
2021/06/16 10:13:55;;;;;;;;;;;;;;;28.04;43.52;100672.88;5119251;27;1901;-68
2021/06/16 10:16:41;;;;;;;;;;;;;;;28.03;43.30;100670.31;5121937;27;1311;-69
2021/06/16 10:19:27;;;;;;;;;;;;;;;28.03;43.56;100671.16;5110636;28;1033;-68
2021/06/16 10:22:13;;;;;;;;;;;;;;;28.07;43.36;100677.09;5125872;27;1580;-65
2021/06/16 10:24:59;;;;;;;;;;;;;;;28.05;43.42;100676.41;5115376;27;1083;-67
2021/06/16 10:28:03;;;;;;;;;;;;;;;28.09;43.31;100691.16;5131284;27;1388;-65
2021/06/16 10:30:54;;;;;;;;;;;;;;;28.08;42.83;100684.16;5131157;27;963;-68
2021/06/16 10:33:41;;;;;;;;;;;;;;;28.12;42.94;100685.53;5129802;27;1857;-66
2021/06/16 10:36:27;;;;;;;;;;;;;;;28.11;42.67;100686.53;5103383;27;1360;-64
2021/06/16 10:39:14;;;;;;;;;;;;;;;28.10;41.57;100683.00;5106187;28;1364;-64
2021/06/16 10:42:00;;;;;;;;;;;;;;;28.15;40.73;100696.78;5113310;27;1556;-66
2021/06/16 10:45:05;;;;;;;;;;;;;;;28.11;41.03;100689.22;5129545;27;1094;-66
2021/06/16 10:47:55;;;;;;;;;;;;;;;28.09;41.07;100692.03;5109193;28;1273;-67
2021/06/16 10:50:44;;;;;;;;;;;;;;;28.10;39.97;100683.00;5112288;27;1189;-66
2021/06/16 10:53:30;;;;;;;;;;;;;;;28.11;40.62;100684.69;5112016;27;1524;-65
2021/06/16 10:56:15;;;;;;;;;;;;;;;28.11;40.72;100681.19;5108452;28;1345;-66
2021/06/16 10:59:00;;;;;;;;;;;;;;;28.13;40.17;100684.53;5111700;27;1525;-66
2021/06/16 11:01:47;;;;;;;;;;;;;;;28.13;40.08;100676.50;5124723;27;1500;-64
2021/06/16 11:04:33;;;;;;;;;;;;;;;28.10;40.41;100674.97;5128156;27;1119;-65
2021/06/16 11:07:31;;;;;;;;;;;;;;;28.13;39.53;100676.50;5127774;27;1297;-65
2021/06/16 11:10:16;;;;;;;;;;;;;;;28.12;40.11;100667.63;5128305;27;1092;-67
2021/06/16 11:13:02;;;;;;;;;;;;;;;28.14;39.06;100673.69;5107379;28;1274;-66
2021/06/16 11:15:47;;;;;;;;;;;;;;;28.17;39.00;100669.88;5106114;28;1968;-70
2021/06/16 11:18:33;;;;;;;;;;;;;;;28.17;39.21;100672.53;5107990;28;698;-66
2021/06/16 11:21:18;;;;;;;;;;;;;;;28.18;40.31;100663.50;5106644;28;1345;-67
2021/06/16 11:24:03;;;;;;;;;;;;;;;28.18;39.93;100660.81;5106404;28;742;-67
2021/06/16 11:26:50;;;;;;;;;;;;;;;28.19;39.69;100657.16;5107202;28;1289;-69
2021/06/16 11:29:54;;;;;;;;;;;;;;;28.14;39.87;100656.78;5107603;28;1071;-69
2021/06/16 11:32:39;;;;;;;;;;;;;;;28.19;40.08;100670.53;5113206;27;1534;-65
2021/06/16 11:35:41;;;;;;;;;;;;;;;28.19;39.94;100675.91;5119583;27;1922;-67
2021/06/16 11:38:32;;;;;;;;;;;;;;;28.25;39.32;100667.28;5128729;27;659;-64
2021/06/16 11:41:19;;;;;;;;;;;;;;;28.34;39.81;100673.56;5128248;27;1343;-65
2021/06/16 11:44:09;;;;;;;;;;;;;;;28.28;39.75;100668.78;5127555;27;773;-67
2021/06/16 11:46:58;;;;;;;;;;;;;;;28.27;39.71;100667.94;5128188;27;1188;-65
2021/06/16 11:49:45;;;;;;;;;;;;;;;28.29;39.84;100665.97;5128241;27;1131;-64
2021/06/16 11:52:31;;;;;;;;;;;;;;;28.31;39.79;100665.81;5128081;27;1331;-64
2021/06/16 11:55:36;;;;;;;;;;;;;;;28.32;40.26;100671.03;5129033;28;1979;-66
2021/06/16 11:58:27;;;;;;;;;;;;;;;28.35;40.65;100664.53;5130082;28;678;-66
2021/06/16 12:01:16;;;;;;;;;;;;;;;28.37;40.41;100665.22;5129409;28;1693;-66
2021/06/16 12:04:02;;;;;;;;;;;;;;;28.38;40.70;100653.50;5129242;28;753;-62
2021/06/16 12:06:54;;;;;;;;;;;;;;;28.38;40.69;100651.69;5129090;28;1372;-63
2021/06/16 12:09:46;;;;;;;;;;;;;;;28.45;40.55;100650.09;5129308;28;982;-63
2021/06/16 12:12:49;;;;;;;;;;;;;;;28.42;41.03;100638.81;5129345;28;1328;-64
2021/06/16 12:15:36;;;;;;;;;;;;;;;28.42;41.68;100638.81;5129659;28;1958;-67
2021/06/16 12:18:21;;;;;;;;;;;;;;;28.45;42.16;100623.28;5129573;28;685;-66
2021/06/16 12:21:06;;;;;;;;;;;;;;;28.49;42.71;100623.81;5129631;28;1259;-68
2021/06/16 12:23:51;;;;;;;;;;;;;;;28.52;42.92;100619.00;5129501;28;655;-67
2021/06/16 12:26:38;;;;;;;;;;;;;;;28.53;43.29;100620.69;5129422;28;1259;-65
2021/06/16 12:29:23;;;;;;;;;;;;;;;28.52;43.63;100610.94;5129446;28;959;-68
2021/06/16 12:32:09;;;;;;;;;;;;;;;28.54;45.21;100610.81;5129351;28;1346;-66
2021/06/16 12:35:06;;;;;;;;;;;;;;;28.60;44.79;100616.41;5132060;27;1955;-67
2021/06/16 12:37:54;;;;;;;;;;;;;;;28.53;44.10;100615.31;5131829;27;1675;-68
2021/06/16 12:40:40;;;;;;;;;;;;;;;28.54;44.42;100610.81;5124678;27;1576;-67
2021/06/16 12:43:26;;;;;;;;;;;;;;;28.52;44.29;100619.00;5122634;27;1511;-66
2021/06/16 12:46:12;;;;;;;;;;;;;;;28.51;44.12;100617.31;5131142;27;1541;-67
2021/06/16 12:49:16;;;;;;;;;;;;;;;28.53;44.69;100623.34;5125189;27;1188;-66
2021/06/16 12:52:04;;;;;;;;;;;;;;;28.59;44.07;100625.44;5121010;27;1318;-66
2021/06/16 12:54:49;;;;;;;;;;;;;;;28.53;43.82;100618.00;5121704;27;1955;-66
2021/06/16 12:57:41;;;;;;;;;;;;;;;28.49;43.70;100634.53;5120449;27;1271;-66
2021/06/16 13:00:29;;;;;;;;;;;;;;;28.55;43.35;100645.47;5122034;27;1135;-66
2021/06/16 13:03:15;;;;;;;;;;;;;;;28.50;43.52;100636.22;5120175;27;1756;-66
2021/06/16 13:06:02;;;;;;;;;;;;;;;28.49;43.83;100630.00;5121257;27;1318;-67
2021/06/16 13:08:49;;;;;;;;;;;;;;;28.50;43.15;100634.38;5120499;27;997;-69
2021/06/16 13:11:36;;;;;;;;;;;;;;;28.55;42.64;100634.75;5119990;27;1298;-65
2021/06/16 13:14:27;;;;;;;;;;;;;;;28.58;43.10;100634.44;5120326;27;1143;-64
2021/06/16 13:17:12;;;;;;;;;;;;;;;28.61;43.45;100627.94;5118837;27;1326;-65
2021/06/16 13:19:59;;;;;;;;;;;;;;;28.66;43.11;100641.78;5119941;27;1039;-64
2021/06/16 13:22:45;;;;;;;;;;;;;;;28.60;43.10;100648.56;5121381;27;1266;-63
2021/06/16 13:25:31;;;;;;;;;;;;;;;28.63;42.28;100653.59;5126116;27;1826;-68
2021/06/16 13:28:29;;;;;;;;;;;;;;;28.60;41.92;100643.19;5122136;27;1433;-67
2021/06/16 13:31:19;;;;;;;;;;;;;;;28.52;41.60;100645.78;5119854;27;1384;-66
2021/06/16 13:34:08;;;;;;;;;;;;;;;28.60;41.94;100643.19;5104379;27;1549;-67
2021/06/16 13:36:53;;;;;;;;;;;;;;;28.57;42.46;100643.50;5101954;27;1321;-66
2021/06/16 13:39:39;;;;;;;;;;;;;;;28.65;43.15;100642.75;5120044;27;1054;-69
2021/06/16 13:42:25;;;;;;;;;;;;;;;28.58;43.78;100638.97;5105728;27;1575;-67
2021/06/16 13:45:10;;;;;;;;;;;;;;;28.56;44.64;100638.28;5118071;27;1208;-67
2021/06/16 13:48:00;;;;;;;;;;;;;;;28.59;44.91;100638.81;5118613;27;1274;-68
2021/06/16 13:50:45;;;;;;;;;;;;;;;28.58;45.21;100644.31;5119817;27;1163;-69
2021/06/16 13:53:30;;;;;;;;;;;;;;;28.61;45.29;100650.22;5119478;27;1212;-68
2021/06/16 13:56:16;;;;;;;;;;;;;;;28.58;45.73;100645.16;5118069;27;1993;-68
2021/06/16 13:59:01;;;;;;;;;;;;;;;28.51;45.10;100638.75;5119437;27;1584;-67
2021/06/16 14:01:46;;;;;;;;;;;;;;;28.48;45.73;100641.75;5103684;27;1484;-65
2021/06/16 14:04:32;;;;;;;;;;;;;;;28.51;45.62;100643.28;5117362;27;1070;-66
2021/06/16 14:07:17;;;;;;;;;;;;;;;28.53;45.83;100649.31;5118687;27;1425;-63
2021/06/16 14:10:04;;;;;;;;;;;;;;;28.49;45.64;100639.88;5119148;27;1106;-67
2021/06/16 14:12:49;;;;;;;;;;;;;;;28.52;45.06;100637.75;5119815;27;1317;-69
2021/06/16 14:15:35;;;;;;;;;;;;;;;28.54;44.76;100626.88;5118389;27;1902;-66
2021/06/16 14:18:21;;;;;;;;;;;;;;;28.49;45.00;100618.44;5118391;27;1054;-65
2021/06/16 14:21:06;;;;;;;;;;;;;;;28.47;45.00;100615.94;5103537;27;1263;-64
2021/06/16 14:23:52;;;;;;;;;;;;;;;28.48;45.27;100606.91;5116332;27;1275;-63
2021/06/16 14:26:37;;;;;;;;;;;;;;;28.46;45.41;100605.34;5106206;27;1460;-63
2021/06/16 14:29:22;;;;;;;;;;;;;;;28.53;45.54;100601.06;5119643;27;1288;-63